createdAt,value
2018-05-27T00:01:07.536Z,16.09
2018-05-27T00:03:35.760Z,16.04
2018-05-27T00:06:03.987Z,16.01
2018-05-27T00:08:32.234Z,15.99
2018-05-27T00:11:01.236Z,16.10
2018-05-27T00:13:29.454Z,16.10
2018-05-27T00:15:57.723Z,16.07
2018-05-27T00:18:25.943Z,16.00
2018-05-27T00:20:54.162Z,15.96
2018-05-27T00:23:22.417Z,15.87
2018-05-27T00:25:50.651Z,15.76
2018-05-27T00:28:18.871Z,15.73
2018-05-27T00:30:47.867Z,15.71
2018-05-27T00:33:16.091Z,15.67
2018-05-27T00:35:44.335Z,15.64
2018-05-27T00:38:12.608Z,15.76
2018-05-27T00:40:40.831Z,15.78
2018-05-27T00:43:09.055Z,15.79
2018-05-27T00:45:37.619Z,15.84
2018-05-27T00:48:06.607Z,15.92
2018-05-27T00:50:34.831Z,15.93
2018-05-27T00:53:04.003Z,15.87
2018-05-27T00:55:32.227Z,15.74
2018-05-27T00:58:00.457Z,15.80
2018-05-27T01:00:28.716Z,15.83
2018-05-27T01:02:57.709Z,15.76
2018-05-27T01:05:25.926Z,15.61
2018-05-27T01:07:54.171Z,15.50
2018-05-27T01:10:22.399Z,15.42
2018-05-27T01:12:50.618Z,15.44
2018-05-27T01:15:18.895Z,15.46
2018-05-27T01:17:47.158Z,15.45
2018-05-27T01:20:15.375Z,15.45
2018-05-27T01:22:43.638Z,15.57
2018-05-27T01:25:11.879Z,15.58
2018-05-27T01:27:40.100Z,15.58
2018-05-27T01:30:08.360Z,15.57
2018-05-27T01:32:36.583Z,15.58
2018-05-27T01:35:04.815Z,15.49
2018-05-27T01:37:33.066Z,15.41
2018-05-27T01:40:02.055Z,15.40
2018-05-27T01:42:30.283Z,15.50
2018-05-27T01:44:58.547Z,15.57
2018-05-27T01:47:26.776Z,15.49
2018-05-27T01:49:55.006Z,15.46
2018-05-27T01:52:23.239Z,15.40
2018-05-27T01:54:51.471Z,15.47
2018-05-27T01:57:19.711Z,15.58
2018-05-27T01:59:47.933Z,15.58
2018-05-27T02:02:16.162Z,15.60
2018-05-27T02:04:44.387Z,15.57
2018-05-27T02:07:12.638Z,15.54
2018-05-27T02:09:40.899Z,15.48
2018-05-27T02:12:09.132Z,15.43
2018-05-27T02:14:37.364Z,15.64
2018-05-27T02:17:06.139Z,15.62
2018-05-27T02:19:34.366Z,15.65
2018-05-27T02:22:02.587Z,15.57
2018-05-27T02:24:30.839Z,15.65
2018-05-27T02:26:59.067Z,15.61
2018-05-27T02:29:27.287Z,15.68
2018-05-27T02:31:56.336Z,15.71
2018-05-27T02:34:24.567Z,15.75
2018-05-27T02:36:52.781Z,15.69
2018-05-27T02:39:21.279Z,15.70
2018-05-27T02:41:49.507Z,15.72
2018-05-27T02:44:18.516Z,15.61
2018-05-27T02:46:46.791Z,15.60
2018-05-27T02:49:15.012Z,15.56
2018-05-27T02:51:43.241Z,15.59
2018-05-27T02:54:11.519Z,15.72
2018-05-27T02:56:39.744Z,15.80
2018-05-27T02:59:07.967Z,15.84
2018-05-27T03:01:36.742Z,15.84
2018-05-27T03:04:05.727Z,15.84
2018-05-27T03:06:33.956Z,15.68
2018-05-27T03:09:02.448Z,15.61
2018-05-27T03:11:30.678Z,15.73
2018-05-27T03:13:58.899Z,15.78
2018-05-27T03:16:27.148Z,15.84
2018-05-27T03:18:55.382Z,15.76
2018-05-27T03:21:23.603Z,15.56
2018-05-27T03:23:51.865Z,15.54
2018-05-27T03:26:20.826Z,15.73
2018-05-27T03:28:49.071Z,15.79
2018-05-27T03:31:17.305Z,15.80
2018-05-27T03:33:45.524Z,15.63
2018-05-27T03:36:13.751Z,15.65
2018-05-27T03:38:41.974Z,15.47
2018-05-27T03:41:10.211Z,15.41
2018-05-27T03:43:38.442Z,15.39
2018-05-27T03:46:06.674Z,15.35
2018-05-27T03:48:34.923Z,15.33
2018-05-27T03:51:03.147Z,15.36
2018-05-27T03:53:31.375Z,15.43
2018-05-27T03:55:59.615Z,15.47
2018-05-27T03:58:27.838Z,15.50
2018-05-27T04:00:56.068Z,15.61
2018-05-27T04:03:24.317Z,15.68
2018-05-27T04:06:09.967Z,15.75
2018-05-27T04:08:38.203Z,15.97
2018-05-27T04:11:06.424Z,16.17
2018-05-27T04:13:34.649Z,16.38
2018-05-27T04:16:03.674Z,16.53
2018-05-27T04:18:32.663Z,16.60
2018-05-27T04:21:00.896Z,16.67
2018-05-27T04:23:29.139Z,16.73
2018-05-27T04:25:57.372Z,16.80
2018-05-27T04:28:25.609Z,16.66
2018-05-27T04:30:53.828Z,16.82
2018-05-27T04:33:22.050Z,17.16
2018-05-27T04:35:50.291Z,17.34
2018-05-27T04:38:19.284Z,17.36
2018-05-27T04:40:47.512Z,17.48
2018-05-27T04:43:15.811Z,17.35
2018-05-27T04:45:44.040Z,17.26
2018-05-27T04:48:12.270Z,17.09
2018-05-27T04:50:40.532Z,17.04
2018-05-27T04:53:08.764Z,17.00
2018-05-27T04:55:36.992Z,17.27
2018-05-27T04:58:05.252Z,17.18
2018-05-27T05:00:33.479Z,17.25
2018-05-27T05:03:02.467Z,17.47
2018-05-27T05:05:30.706Z,17.70
2018-05-27T05:07:58.939Z,17.68
2018-05-27T05:10:27.168Z,17.90
2018-05-27T05:12:55.426Z,18.24
2018-05-27T05:15:23.656Z,18.62
2018-05-27T05:17:51.878Z,18.93
2018-05-27T05:20:20.123Z,19.23
2018-05-27T05:22:48.347Z,19.23
2018-05-27T05:25:16.575Z,19.44
2018-05-27T05:27:44.838Z,19.74
2018-05-27T05:30:13.046Z,19.98
2018-05-27T05:32:41.271Z,20.05
2018-05-27T05:35:10.299Z,20.16
2018-05-27T05:37:38.528Z,20.42
2018-05-27T05:40:06.757Z,20.44
2018-05-27T05:42:34.999Z,20.48
2018-05-27T05:45:03.986Z,21.11
2018-05-27T05:47:32.218Z,21.91
2018-05-27T05:50:00.443Z,22.84
2018-05-27T05:52:29.449Z,22.95
2018-05-27T05:54:57.672Z,23.61
2018-05-27T05:57:25.940Z,24.16
2018-05-27T05:59:54.170Z,24.83
2018-05-27T06:02:23.150Z,25.42
2018-05-27T06:04:51.391Z,24.92
2018-05-27T06:07:19.619Z,25.21
2018-05-27T06:09:48.630Z,25.04
2018-05-27T06:12:16.879Z,24.97
2018-05-27T06:14:45.107Z,24.68
2018-05-27T06:17:13.328Z,24.12
2018-05-27T06:19:42.379Z,24.29
2018-05-27T06:22:10.575Z,24.21
2018-05-27T06:24:38.804Z,24.31
2018-05-27T06:27:07.050Z,24.44
2018-05-27T06:29:36.038Z,25.00
2018-05-27T06:32:04.275Z,25.26
2018-05-27T06:34:32.710Z,24.27
2018-05-27T06:37:00.894Z,24.58
2018-05-27T06:39:29.110Z,25.20
2018-05-27T06:41:57.343Z,25.73
2018-05-27T06:44:25.563Z,25.95
2018-05-27T06:46:53.823Z,26.31
2018-05-27T06:49:22.048Z,27.07
2018-05-27T06:51:50.271Z,27.20
2018-05-27T06:54:18.502Z,28.63
2018-05-27T06:56:47.491Z,29.69
2018-05-27T06:59:15.734Z,29.74
2018-05-27T07:01:43.958Z,30.22
2018-05-27T07:04:12.947Z,30.45
2018-05-27T07:06:41.197Z,30.45
2018-05-27T07:09:09.419Z,30.92
2018-05-27T07:11:37.648Z,31.02
2018-05-27T07:14:05.895Z,31.68
2018-05-27T07:16:34.107Z,31.87
2018-05-27T07:19:02.335Z,32.41
2018-05-27T07:21:30.572Z,32.54
2018-05-27T07:23:59.556Z,32.77
2018-05-27T07:26:27.780Z,33.60
2018-05-27T07:28:56.035Z,34.03
2018-05-27T07:31:24.279Z,34.12
2018-05-27T07:33:52.477Z,33.68
2018-05-27T07:36:20.715Z,33.83
2018-05-27T07:38:48.936Z,32.77
2018-05-27T07:41:17.191Z,32.74
2018-05-27T07:43:46.207Z,33.67
2018-05-27T07:46:15.203Z,32.84
2018-05-27T07:48:43.427Z,33.33
2018-05-27T07:51:11.687Z,34.90
2018-05-27T07:53:39.909Z,32.67
2018-05-27T07:56:08.127Z,33.21
2018-05-27T07:58:36.391Z,33.44
2018-05-27T08:01:04.642Z,31.86
2018-05-27T08:03:33.666Z,32.23
2018-05-27T08:06:01.904Z,31.24
2018-05-27T08:08:30.127Z,31.98
2018-05-27T08:10:58.347Z,32.43
2018-05-27T08:13:26.587Z,34.36
2018-05-27T08:15:54.807Z,34.73
2018-05-27T08:18:23.035Z,36.23
2018-05-27T08:20:51.290Z,36.67
2018-05-27T08:23:19.516Z,38.38
2018-05-27T08:25:47.732Z,37.25
2018-05-27T08:28:15.991Z,37.30
2018-05-27T08:30:44.217Z,36.97
2018-05-27T08:33:12.442Z,37.75
2018-05-27T08:35:40.679Z,39.34
2018-05-27T08:38:08.903Z,40.16
2018-05-27T08:40:37.128Z,40.81
2018-05-27T08:43:05.381Z,38.52
2018-05-27T08:45:33.617Z,39.07
2018-05-27T08:48:01.832Z,37.99
2018-05-27T08:50:30.287Z,40.07
2018-05-27T08:52:58.502Z,41.62
2018-05-27T08:55:26.723Z,42.25
2018-05-27T08:57:55.741Z,42.81
2018-05-27T09:00:23.954Z,41.84
2018-05-27T09:02:52.179Z,41.18
2018-05-27T09:05:21.191Z,39.61
2018-05-27T09:07:49.422Z,40.14
2018-05-27T09:10:17.647Z,40.03
2018-05-27T09:12:45.911Z,40.36
2018-05-27T09:15:14.911Z,40.30
2018-05-27T09:17:43.110Z,40.48
2018-05-27T09:20:11.371Z,38.70
2018-05-27T09:22:39.600Z,36.64
2018-05-27T09:25:07.830Z,36.52
2018-05-27T09:27:36.067Z,36.55
2018-05-27T09:30:04.283Z,35.41
2018-05-27T09:32:32.567Z,36.50
2018-05-27T09:35:00.803Z,36.35
2018-05-27T09:37:29.779Z,40.57
2018-05-27T09:39:58.007Z,40.84
2018-05-27T09:42:26.264Z,41.15
2018-05-27T09:44:54.476Z,39.95
2018-05-27T09:47:22.696Z,40.71
2018-05-27T09:49:51.251Z,40.61
2018-05-27T09:52:19.476Z,42.01
2018-05-27T09:54:47.687Z,42.54
2018-05-27T09:57:15.946Z,40.87
2018-05-27T09:59:44.168Z,36.82
2018-05-27T10:02:12.388Z,39.76
2018-05-27T10:04:40.644Z,40.37
2018-05-27T10:07:08.859Z,39.54
2018-05-27T10:09:37.077Z,41.84
2018-05-27T10:12:06.103Z,42.72
2018-05-27T10:14:34.315Z,43.56
2018-05-27T10:17:02.539Z,42.31
2018-05-27T10:19:31.559Z,42.03
2018-05-27T10:21:59.777Z,43.89
2018-05-27T10:24:28.000Z,43.47
2018-05-27T10:26:56.268Z,43.07
2018-05-27T10:29:24.487Z,42.96
2018-05-27T10:31:52.707Z,44.26
2018-05-27T10:34:20.959Z,43.18
2018-05-27T10:36:49.187Z,42.67
2018-05-27T10:39:17.466Z,42.57
2018-05-27T10:41:45.654Z,42.01
2018-05-27T10:44:13.876Z,39.23
2018-05-27T10:46:42.103Z,38.92
2018-05-27T10:49:10.370Z,41.40
2018-05-27T10:51:38.592Z,41.99
2018-05-27T10:54:06.811Z,44.11
2018-05-27T10:56:35.830Z,46.14
2018-05-27T10:59:04.056Z,43.27
2018-05-27T11:01:32.294Z,44.49
2018-05-27T11:04:00.532Z,45.06
2018-05-27T11:06:29.528Z,45.27
2018-05-27T11:08:57.751Z,46.23
2018-05-27T11:11:25.983Z,45.45
2018-05-27T11:13:54.198Z,44.25
2018-05-27T11:16:22.419Z,45.00
2018-05-27T11:18:50.667Z,45.42
2018-05-27T11:21:18.894Z,45.68
2018-05-27T11:23:47.119Z,45.12
2018-05-27T11:26:15.375Z,45.90
2018-05-27T11:28:43.597Z,44.35
2018-05-27T11:31:11.815Z,45.62
2018-05-27T11:33:40.094Z,45.24
2018-05-27T11:36:08.311Z,42.57
2018-05-27T11:38:36.526Z,42.34
2018-05-27T11:41:04.795Z,44.27
2018-05-27T11:43:33.003Z,44.80
2018-05-27T11:46:01.231Z,44.19
2018-05-27T11:48:30.253Z,42.17
2018-05-27T11:50:58.472Z,43.52
2018-05-27T11:53:26.699Z,44.02
2018-05-27T11:55:55.197Z,43.61
2018-05-27T11:58:23.406Z,42.63
2018-05-27T12:00:51.627Z,45.12
2018-05-27T12:03:19.891Z,45.75
2018-05-27T12:05:48.102Z,44.11
2018-05-27T12:08:16.334Z,42.67
2018-05-27T12:10:44.584Z,43.84
2018-05-27T12:13:12.807Z,42.93
2018-05-27T12:15:41.030Z,45.73
2018-05-27T12:18:09.287Z,43.81
2018-05-27T12:20:37.512Z,40.67
2018-05-27T12:23:06.496Z,37.11
2018-05-27T12:25:34.746Z,39.07
2018-05-27T12:28:02.975Z,38.64
2018-05-27T12:30:31.196Z,42.49
2018-05-27T12:32:59.458Z,41.16
2018-05-27T12:35:27.664Z,42.92
2018-05-27T12:37:55.889Z,41.74
2018-05-27T12:40:24.147Z,40.67
2018-05-27T12:42:53.196Z,40.71
2018-05-27T12:45:21.347Z,41.74
2018-05-27T12:47:49.574Z,39.54
2018-05-27T12:50:17.795Z,38.04
2018-05-27T12:52:46.015Z,36.98
2018-05-27T12:55:14.270Z,37.79
2018-05-27T12:57:42.497Z,37.47
2018-05-27T13:00:11.483Z,38.47
2018-05-27T13:02:39.722Z,38.04
2018-05-27T13:05:07.942Z,39.50
2018-05-27T13:07:36.923Z,38.35
2018-05-27T13:10:05.179Z,37.85
2018-05-27T13:12:33.770Z,38.90
2018-05-27T13:15:02.003Z,38.87
2018-05-27T13:17:30.219Z,37.92
2018-05-27T13:19:58.434Z,36.82
2018-05-27T13:22:26.690Z,36.27
2018-05-27T13:24:55.670Z,35.47
2018-05-27T13:27:23.893Z,34.74
2018-05-27T13:29:52.127Z,33.72
2018-05-27T13:32:21.114Z,33.01
2018-05-27T13:34:49.331Z,32.98
2018-05-27T13:37:17.578Z,32.50
2018-05-27T13:39:46.558Z,32.42
2018-05-27T13:42:14.774Z,32.02
2018-05-27T13:44:43.003Z,32.08
2018-05-27T13:47:11.218Z,31.34
2018-05-27T13:49:39.450Z,30.48
2018-05-27T13:52:07.667Z,30.52
2018-05-27T13:54:36.065Z,29.94
2018-05-27T13:57:04.283Z,29.88
2018-05-27T13:59:32.507Z,29.98
2018-05-27T14:02:00.743Z,29.47
2018-05-27T14:04:28.967Z,29.79
2018-05-27T14:06:57.187Z,29.75
2018-05-27T14:09:25.439Z,29.49
2018-05-27T14:11:53.658Z,30.18
2018-05-27T14:14:22.642Z,29.88
2018-05-27T14:16:50.899Z,30.40
2018-05-27T14:19:19.118Z,30.76
2018-05-27T14:21:47.343Z,30.68
2018-05-27T14:24:15.661Z,30.14
2018-05-27T14:26:43.831Z,30.36
2018-05-27T14:29:12.059Z,30.57
2018-05-27T14:31:40.302Z,30.71
2018-05-27T14:34:08.539Z,30.29
2018-05-27T14:36:36.755Z,29.93
2018-05-27T14:39:05.679Z,29.53
2018-05-27T14:41:33.899Z,29.72
2018-05-27T14:44:02.123Z,29.92
2018-05-27T14:46:30.367Z,30.24
2018-05-27T14:48:58.587Z,30.19
2018-05-27T14:51:26.807Z,30.07
2018-05-27T14:53:55.084Z,29.75
2018-05-27T14:56:23.307Z,29.75
2018-05-27T14:58:51.541Z,29.69
2018-05-27T15:01:20.561Z,29.68
2018-05-27T15:03:48.786Z,30.27
2018-05-27T15:06:16.999Z,30.67
2018-05-27T15:08:45.264Z,30.45
2018-05-27T15:11:14.244Z,30.55
2018-05-27T15:13:42.459Z,30.46
2018-05-27T15:16:10.734Z,30.34
2018-05-27T15:18:38.974Z,29.97
2018-05-27T15:21:07.175Z,30.30
2018-05-27T15:23:35.427Z,30.31
2018-05-27T15:26:03.657Z,31.03
2018-05-27T15:28:31.881Z,31.09
2018-05-27T15:31:00.899Z,31.08
2018-05-27T15:33:29.119Z,31.39
2018-05-27T15:35:57.343Z,31.22
2018-05-27T15:38:25.597Z,30.23
2018-05-27T15:40:54.583Z,29.84
2018-05-27T15:43:22.803Z,29.96
2018-05-27T15:45:51.034Z,29.53
2018-05-27T15:48:20.048Z,29.18
2018-05-27T15:50:48.235Z,28.88
2018-05-27T15:53:16.505Z,29.05
2018-05-27T15:55:44.723Z,28.54
2018-05-27T15:58:12.943Z,28.70
2018-05-27T16:00:41.235Z,28.61
2018-05-27T16:03:09.458Z,28.82
2018-05-27T16:05:37.679Z,29.18
2018-05-27T16:08:06.679Z,29.61
2018-05-27T16:10:34.903Z,29.59
2018-05-27T16:13:03.886Z,29.86
2018-05-27T16:15:32.138Z,30.90
2018-05-27T16:18:00.363Z,30.33
2018-05-27T16:20:28.575Z,29.81
2018-05-27T16:22:56.854Z,30.23
2018-05-27T16:25:25.832Z,30.35
2018-05-27T16:27:54.048Z,30.61
2018-05-27T16:30:22.275Z,31.06
2018-05-27T16:32:51.267Z,30.39
2018-05-27T16:35:19.485Z,30.56
2018-05-27T16:37:47.736Z,30.37
2018-05-27T16:40:15.962Z,30.55
2018-05-27T16:42:44.183Z,30.32
2018-05-27T16:45:12.438Z,29.77
2018-05-27T16:47:40.659Z,29.45
2018-05-27T16:50:08.883Z,29.39
2018-05-27T16:52:37.137Z,29.11
2018-05-27T16:55:05.351Z,28.83
2018-05-27T16:57:33.571Z,28.51
2018-05-27T17:00:01.834Z,28.25
2018-05-27T17:02:30.083Z,28.21
2018-05-27T17:04:59.062Z,28.51
2018-05-27T17:07:27.323Z,28.15
2018-05-27T17:09:55.548Z,27.99
2018-05-27T17:12:23.789Z,27.88
2018-05-27T17:14:52.032Z,27.62
2018-05-27T17:17:20.254Z,27.58
2018-05-27T17:19:48.479Z,27.55
2018-05-27T17:22:16.720Z,27.62
2018-05-27T17:24:44.939Z,27.39
2018-05-27T17:27:13.163Z,27.35
2018-05-27T17:29:41.403Z,27.21
2018-05-27T17:32:09.621Z,26.97
2018-05-27T17:34:38.612Z,26.71
2018-05-27T17:37:06.867Z,26.70
2018-05-27T17:39:35.088Z,26.45
2018-05-27T17:42:03.307Z,26.28
2018-05-27T17:44:31.550Z,26.21
2018-05-27T17:46:59.778Z,26.12
2018-05-27T17:49:27.989Z,25.97
2018-05-27T17:51:56.231Z,25.94
2018-05-27T17:54:25.238Z,25.90
2018-05-27T17:56:53.441Z,25.96
2018-05-27T17:59:21.682Z,25.89
2018-05-27T18:01:50.660Z,25.90
2018-05-27T18:04:18.887Z,25.93
2018-05-27T18:06:47.130Z,26.09
2018-05-27T18:09:16.110Z,26.36
2018-05-27T18:11:44.334Z,26.62
2018-05-27T18:14:12.575Z,26.76
2018-05-27T18:16:41.554Z,26.55
2018-05-27T18:19:09.779Z,26.60
2018-05-27T18:21:38.020Z,26.44
2018-05-27T18:24:07.015Z,25.73
2018-05-27T18:26:35.251Z,25.47
2018-05-27T18:29:03.471Z,25.45
2018-05-27T18:31:31.687Z,25.50
2018-05-27T18:33:59.947Z,25.69
2018-05-27T18:36:28.167Z,25.67
2018-05-27T18:38:56.387Z,25.63
2018-05-27T18:41:24.647Z,25.48
2018-05-27T18:43:53.631Z,25.28
2018-05-27T18:46:21.856Z,25.07
2018-05-27T18:48:50.107Z,24.97
2018-05-27T18:51:18.327Z,24.67
2018-05-27T18:53:46.550Z,24.68
2018-05-27T18:56:15.049Z,24.36
2018-05-27T18:58:43.264Z,24.34
2018-05-27T19:01:11.503Z,24.34
2018-05-27T19:03:39.731Z,24.12
2018-05-27T19:06:08.710Z,23.85
2018-05-27T19:08:36.963Z,23.84
2018-05-27T19:11:05.183Z,23.69
2018-05-27T19:13:34.185Z,23.64
2018-05-27T19:16:02.940Z,23.42
2018-05-27T19:18:31.159Z,23.30
2018-05-27T19:20:59.383Z,23.21
2018-05-27T19:23:27.647Z,23.09
2018-05-27T19:25:55.875Z,22.86
2018-05-27T19:28:24.865Z,22.53
2018-05-27T19:30:53.111Z,22.47
2018-05-27T19:33:21.331Z,22.34
2018-05-27T19:35:49.559Z,22.29
2018-05-27T19:38:17.816Z,22.06
2018-05-27T19:40:46.043Z,22.00
2018-05-27T19:43:14.266Z,22.03
2018-05-27T19:45:42.527Z,21.96
2018-05-27T19:48:10.751Z,21.84
2018-05-27T19:50:38.970Z,21.64
2018-05-27T19:53:07.231Z,21.53
2018-05-27T19:55:35.459Z,21.42
2018-05-27T19:58:03.687Z,21.36
2018-05-27T20:00:31.928Z,21.47
2018-05-27T20:03:00.151Z,21.66
2018-05-27T20:05:28.374Z,21.71
2018-05-27T20:07:56.639Z,21.67
2018-05-27T20:10:24.872Z,21.56
2018-05-27T20:12:53.103Z,21.53
2018-05-27T20:15:21.360Z,21.58
2018-05-27T20:17:49.583Z,21.63
2018-05-27T20:20:17.811Z,21.64
2018-05-27T20:22:46.067Z,21.68
2018-05-27T20:25:14.303Z,21.71
2018-05-27T20:27:43.301Z,21.70
2018-05-27T20:30:11.571Z,21.84
2018-05-27T20:32:39.799Z,21.91
2018-05-27T20:35:08.032Z,21.91
2018-05-27T20:37:37.054Z,21.94
2018-05-27T20:40:05.291Z,21.69
2018-05-27T20:42:33.638Z,21.55
2018-05-27T20:45:01.888Z,21.55
2018-05-27T20:47:30.100Z,21.64
2018-05-27T20:49:58.348Z,21.68
2018-05-27T20:52:26.576Z,21.72
2018-05-27T20:54:55.603Z,21.68
2018-05-27T20:57:23.821Z,21.46
2018-05-27T20:59:52.051Z,21.37
2018-05-27T21:02:20.287Z,21.36
2018-05-27T21:04:48.506Z,21.45
2018-05-27T21:07:16.736Z,21.40
2018-05-27T21:09:44.999Z,21.27
2018-05-27T21:12:13.226Z,21.14
2018-05-27T21:14:41.456Z,21.13
2018-05-27T21:17:09.707Z,21.09
2018-05-27T21:19:37.940Z,21.18
2018-05-27T21:22:06.172Z,21.31
2018-05-27T21:24:34.420Z,21.34
2018-05-27T21:27:02.651Z,21.34
2018-05-27T21:29:30.871Z,21.20
2018-05-27T21:31:59.135Z,20.98
2018-05-27T21:34:27.367Z,20.94
2018-05-27T21:36:55.590Z,20.94
2018-05-27T21:39:23.841Z,20.98
2018-05-27T21:41:52.839Z,21.04
2018-05-27T21:44:21.087Z,20.99
2018-05-27T21:46:49.314Z,20.97
2018-05-27T21:49:17.539Z,21.00
2018-05-27T21:51:45.805Z,20.97
2018-05-27T21:54:14.034Z,20.71
2018-05-27T21:56:42.255Z,20.51
2018-05-27T21:59:10.563Z,20.35
2018-05-27T22:01:38.792Z,20.27
2018-05-27T22:04:07.023Z,20.23
2018-05-27T22:06:36.059Z,20.15
2018-05-27T22:09:04.270Z,20.26
2018-05-27T22:11:32.487Z,20.31
2018-05-27T22:14:00.739Z,20.29
2018-05-27T22:16:29.726Z,20.13
2018-05-27T22:18:57.960Z,19.99
2018-05-27T22:21:26.231Z,19.88
2018-05-27T22:23:54.452Z,19.80
2018-05-27T22:26:22.676Z,19.72
2018-05-27T22:28:50.937Z,19.63
2018-05-27T22:31:19.154Z,19.63
2018-05-27T22:33:47.384Z,19.59
2018-05-27T22:36:15.631Z,19.37
2018-05-27T22:38:43.863Z,19.41
2018-05-27T22:41:12.087Z,19.46
2018-05-27T22:43:40.331Z,19.33
2018-05-27T22:46:08.555Z,19.16
2018-05-27T22:48:36.779Z,19.15
2018-05-27T22:51:05.040Z,19.07
2018-05-27T22:53:33.263Z,19.00
2018-05-27T22:56:01.487Z,19.03
2018-05-27T22:58:30.092Z,18.93
2018-05-27T23:00:58.295Z,18.80
2018-05-27T23:03:26.515Z,18.68
2018-05-27T23:05:54.783Z,18.63
2018-05-27T23:08:23.007Z,18.55
2018-05-27T23:10:51.239Z,18.46
2018-05-27T23:13:19.504Z,18.43
2018-05-27T23:15:47.737Z,18.50
2018-05-27T23:18:15.959Z,18.42
2018-05-27T23:20:44.234Z,18.28
2018-05-27T23:23:12.460Z,18.25
2018-05-27T23:25:40.688Z,18.09
2018-05-27T23:28:08.922Z,17.98
2018-05-27T23:30:37.154Z,18.01
2018-05-27T23:33:05.380Z,18.03
2018-05-27T23:35:33.632Z,17.88
2018-05-27T23:38:01.864Z,17.71
2018-05-27T23:40:30.085Z,17.68
2018-05-27T23:42:58.323Z,17.72
2018-05-27T23:45:26.551Z,17.62
2018-05-27T23:47:54.780Z,17.65
2018-05-27T23:50:23.011Z,17.78
2018-05-27T23:52:51.236Z,17.78
2018-05-27T23:55:19.485Z,17.51
2018-05-27T23:57:48.528Z,17.57
